Orbital elements of FENGYUN 1C DEB
| Launched | 9 May 1999 |
| Flight ended | – |
| Launch site | Taiyuan Space Center, PRC |
| Owner | People's Republic of China |
| NORAD ID | 30675 |
| Date fetched |
Epoch osculation |
Inc. [°] |
Ecc. | RA asc node [hr] |
Arg Peri. [°] |
Mean anom [°] |
Mean motion [rev/day] |
Abs. mag |
| Date fetched |
Epoch osculation |
Inc. [°] |
Ecc. | RA asc node [hr] |
Arg Peri. [°] |
Mean anom [°] |
Mean motion [rev/day] |
Abs. mag |
| 2026 May 08 17:57 | 2026 May 05 04:32:10 | 98.7433 | 0.00532 | 13.9709 | 111.0860 | 279.2735 | 14.28508 | – |
| 2026 May 07 17:58 | 2026 May 05 04:32:10 | 98.7433 | 0.00532 | 13.9709 | 111.0860 | 279.2735 | 14.28508 | – |
| 2026 May 06 17:57 | 2026 May 05 04:32:10 | 98.7433 | 0.00532 | 13.9709 | 111.0860 | 279.2735 | 14.28508 | – |
| 2026 May 05 17:57 | 2026 May 05 04:32:10 | 98.7433 | 0.00532 | 13.9709 | 111.0860 | 279.2735 | 14.28508 | – |
| 2026 May 04 17:57 | 2026 Apr 29 04:05:41 | 98.7437 | 0.00534 | 13.5689 | 128.0171 | 279.2735 | 14.28508 | – |
| 2026 May 03 17:57 | 2026 Apr 29 04:05:41 | 98.7437 | 0.00534 | 13.5689 | 128.0171 | 279.2735 | 14.28508 | – |
| 2026 May 02 17:57 | 2026 Apr 29 04:05:41 | 98.7437 | 0.00534 | 13.5689 | 128.0171 | 279.2735 | 14.28508 | – |
| 2026 May 01 17:56 | 2026 Apr 29 04:05:41 | 98.7437 | 0.00534 | 13.5689 | 128.0171 | 279.2735 | 14.28508 | – |
| 2026 Apr 30 17:56 | 2026 Apr 29 04:05:41 | 98.7437 | 0.00534 | 13.5689 | 128.0171 | 279.2735 | 14.28508 | – |
| 2026 Apr 29 17:57 | 2026 Apr 24 04:36:22 | 98.7428 | 0.00534 | 13.2364 | 141.9743 | 279.2735 | 14.28508 | – |
| 2026 Apr 28 17:56 | 2026 Apr 24 04:36:22 | 98.7428 | 0.00534 | 13.2364 | 141.9743 | 279.2735 | 14.28508 | – |
| 2026 Apr 27 17:58 | 2026 Apr 24 04:36:22 | 98.7428 | 0.00534 | 13.2364 | 141.9743 | 279.2735 | 14.28508 | – |
| 2026 Apr 26 17:58 | 2026 Apr 24 04:36:22 | 98.7428 | 0.00534 | 13.2364 | 141.9743 | 279.2735 | 14.28508 | – |
| 2026 Apr 25 17:58 | 2026 Apr 24 04:36:22 | 98.7428 | 0.00534 | 13.2364 | 141.9743 | 279.2735 | 14.28508 | – |
| 2026 Apr 24 17:59 | 2026 Apr 24 04:36:22 | 98.7428 | 0.00534 | 13.2364 | 141.9743 | 279.2735 | 14.28508 | – |
| 2026 Apr 23 17:57 | 2026 Apr 18 05:40:25 | 98.7434 | 0.00533 | 12.8385 | 158.7063 | 279.2735 | 14.28508 | – |
| 2026 Apr 22 17:57 | 2026 Apr 18 05:40:25 | 98.7434 | 0.00533 | 12.8385 | 158.7063 | 279.2735 | 14.28508 | – |
| 2026 Apr 21 17:57 | 2026 Apr 18 05:40:25 | 98.7434 | 0.00533 | 12.8385 | 158.7063 | 279.2735 | 14.28508 | – |
| 2026 Apr 20 17:57 | 2026 Apr 18 05:40:25 | 98.7434 | 0.00533 | 12.8385 | 158.7063 | 279.2735 | 14.28508 | – |
| 2026 Apr 19 17:58 | 2026 Apr 18 05:40:25 | 98.7434 | 0.00533 | 12.8385 | 158.7063 | 279.2735 | 14.28508 | – |
| 2026 Apr 18 17:56 | 2026 Apr 13 04:39:51 | 98.7433 | 0.00531 | 12.5018 | 172.9832 | 279.2735 | 14.28508 | – |
| 2026 Apr 16 17:57 | 2026 Apr 13 04:39:51 | 98.7433 | 0.00531 | 12.5018 | 172.9832 | 279.2735 | 14.28508 | – |
| 2026 Apr 14 17:57 | 2026 Apr 13 04:39:51 | 98.7433 | 0.00531 | 12.5018 | 172.9832 | 279.2735 | 14.28508 | – |
| 2026 Apr 13 17:57 | 2026 Apr 13 04:39:51 | 98.7433 | 0.00531 | 12.5018 | 172.9832 | 279.2735 | 14.28508 | – |
| 2026 Apr 12 17:57 | 2026 Apr 08 03:46:01 | 98.7427 | 0.00527 | 12.1653 | 187.1984 | 279.2735 | 14.28508 | – |
| 2026 Apr 11 17:57 | 2026 Apr 08 03:46:01 | 98.7427 | 0.00527 | 12.1653 | 187.1984 | 279.2735 | 14.28508 | – |